メインページ
METAR-TAF:

METAR-TAF

空港 :

シェレメーチエヴォ国際空港

モスクワ-シェレメーチエヴォ, ロシア

緯度: 55-58N, 経度: 037-25E, 海抜: 190m

現時点の気象観測

当レポートは42分前の16:30(UTC)に作成
の風 8kt、南/南東から南西の間で変化する
気温 9°C
湿度 40%
気圧 1025 hPa
視程10km以上
1,500メートル以下は雲なし、積乱雲なし

METAR: UUEE 071630Z 18004MPS 160V220 CAVOK 09/M04 Q1025 R24L/CLRD62 NOSIG

時間: 20:12 (17:12 UTC)

予報

当レポートは3時間12分前の14:00(UTC)に作成
予報は07日の 15時(UTC)から 08日の 15時(UTC)まで有効
南西の風 10kt、最大19ktの突風を伴う
視程10km以上
高度3000ftの雲は散在している
08日の 01時(UTC)から 08日の 06時(UTC)まで一時的に
西/南西の風 17kt、最大29ktの突風を伴う
高度1500ftの雲は散在している, 積乱雲.
弱いにわか雨
08日の 06時(UTC)から 08日の 08時(UTC)まで徐々に
北西の風 14kt、最大23ktの突風を伴う

TAF: UUEE 071400Z 0715/0815 23005G10MPS 9999 SCT030 TX10/0813Z TN01/0803Z TEMPO 0801/0806 25009G15MPS -SHRA SCT015CB BECMG 0806/0808 32007G12MPS

4,000以上の空港の気象観測と天気予報(METAR報とTAF報)

利用可能な観測所は地図上に黄色い丸と赤い丸で示す。

丸の上にカーソルを重ねると観測所名を参照できる。

次にクリックすると気象観測と天気予報を参照できる。

マップの切り替え:黒色「×」印の緑ボタンをクリックして拡大、「-」印の緑ボタンをクリックして縮小、緑色の三角印をクリックして隣りの地図に切り替え


METAR-TAF: